createdAt,value
2022-08-07T00:02:35.927Z,18.83
2022-08-07T00:07:14.190Z,18.82
2022-08-07T00:12:19.222Z,18.89
2022-08-07T00:17:16.912Z,18.92
2022-08-07T00:22:24.272Z,18.82
2022-08-07T00:27:20.387Z,18.79
2022-08-07T00:32:28.201Z,18.73
2022-08-07T00:37:23.294Z,18.66
2022-08-07T00:42:25.439Z,18.68
2022-08-07T00:48:08.535Z,18.78
2022-08-07T00:52:28.355Z,18.87
2022-08-07T00:57:29.865Z,18.84
2022-08-07T01:02:31.863Z,18.83
2022-08-07T01:07:33.192Z,18.78
2022-08-07T01:12:34.841Z,18.65
2022-08-07T01:17:36.145Z,18.61
2022-08-07T01:22:38.107Z,18.61
2022-08-07T01:27:41.110Z,18.58
2022-08-07T01:32:41.895Z,18.4
2022-08-07T01:37:43.632Z,18.24
2022-08-07T01:42:57.056Z,18.2
2022-08-07T01:48:17.055Z,18.19
2022-08-07T01:52:49.348Z,18.2
2022-08-07T01:58:01.756Z,18.27
2022-08-07T02:03:11.525Z,18.23
2022-08-07T02:07:53.917Z,18.03
2022-08-07T02:12:55.251Z,17.94
2022-08-07T02:17:57.246Z,17.87
2022-08-07T02:22:59.808Z,17.83
2022-08-07T02:28:00.772Z,17.79
2022-08-07T02:33:07.513Z,17.84
2022-08-07T02:38:03.814Z,17.87
2022-08-07T02:43:07.703Z,17.73
2022-08-07T02:48:10.132Z,17.68
2022-08-07T02:53:10.809Z,17.54
2022-08-07T02:58:10.293Z,17.44
2022-08-07T03:03:13.405Z,17.29
2022-08-07T03:08:13.170Z,17.29
2022-08-07T03:13:14.387Z,17.34
2022-08-07T03:18:17.560Z,17.27
2022-08-07T03:23:18.988Z,17.12
2022-08-07T03:28:37.084Z,17.07
2022-08-07T03:33:20.624Z,16.98
2022-08-07T03:38:29.815Z,16.95
2022-08-07T03:43:26.539Z,16.91
2022-08-07T03:48:25.850Z,16.95
2022-08-07T03:53:30.216Z,16.99
2022-08-07T03:58:35.561Z,16.86
2022-08-07T04:03:38.945Z,16.68
2022-08-07T04:08:31.804Z,16.58
2022-08-07T04:14:09.168Z,16.53
2022-08-07T04:18:58.894Z,16.43
2022-08-07T04:23:43.114Z,16.32
2022-08-07T04:28:38.127Z,16.35
2022-08-07T04:33:40.111Z,16.45
2022-08-07T04:38:41.339Z,16.43
2022-08-07T04:48:45.031Z,16.35
2022-08-07T04:54:02.191Z,16.33
2022-08-07T04:59:16.776Z,16.26
2022-08-07T05:14:45.194Z,16.46
2022-08-07T05:28:58.645Z,16.75
2022-08-07T05:44:08.836Z,17.2
2022-08-07T05:49:09.046Z,17.42
2022-08-07T05:54:09.018Z,17.48
2022-08-07T05:59:09.779Z,17.66
2022-08-07T06:04:10.989Z,17.91
2022-08-07T06:09:12.865Z,18.2
2022-08-07T06:14:21.072Z,18.52
2022-08-07T06:19:17.760Z,18.89
2022-08-07T06:24:37.409Z,19.46
2022-08-07T06:29:19.369Z,19.99
2022-08-07T06:34:21.534Z,20.19
2022-08-07T06:40:13.784Z,20.43
2022-08-07T06:44:24.178Z,20.59
2022-08-07T06:49:25.540Z,20.74
2022-08-07T06:55:30.993Z,21.24
2022-08-07T07:00:10.999Z,21.47
2022-08-07T07:04:33.158Z,21.46
2022-08-07T07:09:32.833Z,21.59
2022-08-07T07:14:34.651Z,21.72
2022-08-07T07:19:56.812Z,21.71
2022-08-07T07:24:37.914Z,22.32
2022-08-07T07:29:57.415Z,22.11
2022-08-07T07:34:40.915Z,22.11
2022-08-07T07:39:45.804Z,22.16
2022-08-07T07:44:44.669Z,22
2022-08-07T07:50:31.750Z,21.74
2022-08-07T07:54:50.951Z,21.86
2022-08-07T07:59:51.964Z,21.88
2022-08-07T08:04:51.381Z,21.61
2022-08-07T08:10:05.160Z,21.52
2022-08-07T08:14:55.162Z,21.71
2022-08-07T08:20:18.933Z,22.18
2022-08-07T08:25:04.608Z,22.62
2022-08-07T08:30:02.840Z,22.86
2022-08-07T08:35:02.469Z,23.04
2022-08-07T08:40:04.341Z,23.08
2022-08-07T08:45:05.837Z,23.89
2022-08-07T08:50:07.403Z,24.44
2022-08-07T08:55:08.779Z,24.13
2022-08-07T09:00:10.034Z,24.32
2022-08-07T09:05:14.633Z,24.58
2022-08-07T09:10:13.818Z,24.73
2022-08-07T09:16:20.851Z,25.09
2022-08-07T09:20:34.625Z,24.87
2022-08-07T09:25:20.240Z,25.51
2022-08-07T09:30:25.426Z,25.46
2022-08-07T09:36:01.477Z,25.91
2022-08-07T09:40:24.744Z,26.19
2022-08-07T09:46:11.283Z,25.88
2022-08-07T09:50:30.006Z,25.98
2022-08-07T09:55:37.030Z,25.94
2022-08-07T10:00:32.069Z,26.78
2022-08-07T10:05:59.947Z,26.37
2022-08-07T10:10:54.075Z,26.11
2022-08-07T10:15:37.736Z,25.48
2022-08-07T10:20:37.156Z,25.87
2022-08-07T10:25:42.614Z,25.17
2022-08-07T10:30:39.975Z,24.57
2022-08-07T10:35:53.771Z,24.21
2022-08-07T10:40:43.615Z,24.26
2022-08-07T10:45:57.859Z,24.26
2022-08-07T10:50:50.053Z,24.11
2022-08-07T10:55:48.261Z,24.63
2022-08-07T11:00:55.931Z,24.93
2022-08-07T11:05:52.137Z,24.69
2022-08-07T11:10:58.067Z,24.94
2022-08-07T11:15:55.642Z,25
2022-08-07T11:20:56.857Z,25.21
2022-08-07T11:26:06.150Z,25.32
2022-08-07T11:31:00.658Z,25.02
2022-08-07T11:36:02.547Z,24.61
2022-08-07T11:41:03.520Z,24.79
2022-08-07T11:46:04.830Z,24.83
2022-08-07T11:51:09.003Z,24.95
2022-08-07T11:56:25.379Z,24.7
2022-08-07T12:01:09.771Z,24.62
2022-08-07T12:06:36.862Z,24.75
2022-08-07T12:11:20.965Z,24.8
2022-08-07T12:16:14.268Z,24.95
2022-08-07T12:21:15.907Z,24.98
2022-08-07T12:26:23.712Z,25.1
2022-08-07T12:31:22.514Z,24.77
2022-08-07T12:36:32.835Z,24.72
2022-08-07T12:41:23.262Z,24.74
2022-08-07T12:46:26.138Z,24.62
2022-08-07T12:51:33.276Z,24.65
2022-08-07T12:56:27.364Z,24.41
2022-08-07T13:01:32.281Z,24.45
2022-08-07T13:06:30.539Z,24.69
2022-08-07T13:12:00.873Z,24.94
2022-08-07T13:12:01.023Z,24.93
2022-08-07T13:16:40.881Z,24.78
2022-08-07T13:21:51.840Z,24.76
2022-08-07T13:26:46.005Z,24.76
2022-08-07T13:31:45.973Z,24.74
2022-08-07T13:36:47.320Z,24.71
2022-08-07T13:41:48.858Z,24.82
2022-08-07T13:46:50.544Z,24.86
2022-08-07T13:52:04.002Z,24.88
2022-08-07T13:56:55.977Z,24.95
2022-08-07T14:02:03.493Z,25.06
2022-08-07T14:06:57.390Z,25
2022-08-07T14:12:10.379Z,25
2022-08-07T14:17:01.068Z,24.93
2022-08-07T14:22:11.507Z,25
2022-08-07T14:27:16.379Z,25.07
2022-08-07T14:32:06.428Z,25.19
2022-08-07T14:37:07.780Z,25.12
2022-08-07T14:42:19.139Z,25.11
2022-08-07T14:47:20.653Z,24.97
2022-08-07T14:52:13.004Z,24.89
2022-08-07T15:02:32.271Z,25.15
2022-08-07T15:07:21.550Z,25.14
2022-08-07T15:12:25.738Z,25.12
2022-08-07T15:17:30.771Z,25.16
2022-08-07T15:22:31.240Z,25.19
2022-08-07T15:27:24.807Z,25.31
2022-08-07T15:32:39.337Z,25.18
2022-08-07T15:37:28.319Z,25.02
2022-08-07T15:42:42.880Z,24.68
2022-08-07T15:52:34.084Z,24.79
2022-08-07T15:57:40.469Z,24.63
2022-08-07T16:02:36.759Z,24.42
2022-08-07T16:08:29.438Z,24.29
2022-08-07T16:12:40.007Z,24.38
2022-08-07T16:18:01.093Z,24.37
2022-08-07T16:22:54.759Z,24.28
2022-08-07T16:27:45.197Z,24.26
2022-08-07T16:32:54.441Z,24.29
2022-08-07T16:38:02.818Z,24.35
2022-08-07T16:42:50.357Z,24.3
2022-08-07T16:47:56.689Z,24.15
2022-08-07T16:52:55.507Z,24.06
2022-08-07T16:58:01.307Z,23.93
2022-08-07T17:02:57.877Z,23.93
2022-08-07T17:07:59.448Z,23.95
2022-08-07T17:13:01.231Z,24.03
2022-08-07T17:18:02.780Z,23.71
2022-08-07T17:23:08.714Z,23.68
2022-08-07T17:28:06.558Z,23.66
2022-08-07T17:33:39.427Z,23.8
2022-08-07T17:38:21.219Z,23.82
2022-08-07T17:43:14.875Z,23.72
2022-08-07T17:48:12.861Z,23.7
2022-08-07T17:53:23.516Z,23.61
2022-08-07T17:58:20.755Z,23.55
2022-08-07T18:03:18.026Z,23.58
2022-08-07T18:08:23.852Z,23.69
2022-08-07T18:13:20.421Z,23.66
2022-08-07T18:18:33.422Z,23.52
2022-08-07T18:23:42.879Z,23.4
2022-08-07T18:28:33.127Z,23.3
2022-08-07T18:33:27.022Z,23.32
2022-08-07T18:38:54.320Z,23.33
2022-08-07T18:43:30.607Z,23.17
2022-08-07T18:50:06.408Z,23.05
2022-08-07T18:53:37.093Z,22.98
2022-08-07T18:58:35.638Z,23
2022-08-07T19:03:38.667Z,22.93
2022-08-07T19:08:39.558Z,22.83
2022-08-07T19:13:41.094Z,22.78
2022-08-07T19:18:44.678Z,22.71
2022-08-07T19:29:03.766Z,22.6
2022-08-07T19:54:30.120Z,22.32
2022-08-07T20:13:59.944Z,22.12
2022-08-07T20:19:01.232Z,22.04
2022-08-07T20:24:03.126Z,21.9
2022-08-07T20:34:05.981Z,21.73
2022-08-07T20:49:55.311Z,21.47
2022-08-07T20:54:15.236Z,21.37
2022-08-07T20:59:27.336Z,21.24
2022-08-07T21:04:20.092Z,21.13
2022-08-07T21:09:17.223Z,21.08
2022-08-07T21:14:31.611Z,21.04
2022-08-07T21:19:20.194Z,20.84
2022-08-07T21:24:21.939Z,20.78
2022-08-07T21:29:23.203Z,20.67
2022-08-07T21:34:26.534Z,20.53
2022-08-07T21:39:44.612Z,20.44
2022-08-07T21:44:30.053Z,20.42
2022-08-07T21:49:30.074Z,20.32
2022-08-07T21:54:31.904Z,20.19
2022-08-07T21:59:36.206Z,20.12
2022-08-07T22:14:38.970Z,19.87
2022-08-07T22:19:40.268Z,19.87
2022-08-07T22:24:41.413Z,19.76
2022-08-07T22:29:47.601Z,19.66
2022-08-07T22:34:49.836Z,19.59
2022-08-07T22:39:51.985Z,19.52
2022-08-07T22:44:58.522Z,19.41
2022-08-07T22:49:51.949Z,19.37
2022-08-07T22:54:51.947Z,19.37
2022-08-07T22:59:53.468Z,19.37
2022-08-07T23:04:57.114Z,19.28
2022-08-07T23:10:01.558Z,19.28
2022-08-07T23:14:58.598Z,19.25
2022-08-07T23:20:03.133Z,19.15
2022-08-07T23:25:01.567Z,19.12
2022-08-07T23:30:36.585Z,19.12
2022-08-07T23:35:04.412Z,19.12
2022-08-07T23:40:07.515Z,18.98
2022-08-07T23:45:14.945Z,18.96
2022-08-07T23:50:11.707Z,18.91
2022-08-07T23:55:11.847Z,18.79
